Time;durP1;ratioP1;P1;durP2;ratioP2;P2;SDS_P1;SDS_P2;PMS_P1;PMS_P2;Temp;Humidity;BMP_temperature;BMP_pressure;BME280_temperature;BME280_humidity;BME280_pressure;Samples;Min_cycle;Max_cycle;Signal;HPM_P1;HPM_P2
2023/01/29 00:01:36;;;;;;;110.18;105.78;;;7.50;96.30;;;;;;5010269;28;20058;-78
2023/01/29 00:04:02;;;;;;;108.70;104.32;;;7.50;96.30;;;;;;5026522;28;20088;-77
2023/01/29 00:06:28;;;;;;;110.78;106.28;;;7.50;96.30;;;;;;5027996;28;20021;-77
2023/01/29 00:08:54;;;;;;;107.85;103.50;;;7.50;96.30;;;;;;5010194;28;20363;-78
2023/01/29 00:11:19;;;;;;;109.57;105.07;;;7.50;96.30;;;;;;5026761;28;20046;-78
2023/01/29 00:13:46;;;;;;;109.55;105.05;;;7.50;96.30;;;;;;5026449;28;20038;-78
2023/01/29 00:16:12;;;;;;;105.10;100.80;;;7.50;96.30;;;;;;5027736;28;20032;-76
2023/01/29 00:18:38;;;;;;;113.25;108.60;;;7.50;96.30;;;;;;5028087;28;20037;-76
2023/01/29 00:21:12;;;;;;;114.05;109.35;;;7.50;96.40;;;;;;5026787;28;20037;-76
2023/01/29 00:23:39;;;;;;;112.65;108.00;;;7.50;96.30;;;;;;5028311;28;20086;-76
2023/01/29 00:26:05;;;;;;;114.20;109.50;;;7.50;96.30;;;;;;5010272;28;20037;-76
2023/01/29 00:28:30;;;;;;;113.55;108.85;;;7.50;96.30;;;;;;5026550;28;20112;-76
2023/01/29 00:30:56;;;;;;;109.85;105.35;;;7.40;96.30;;;;;;5026763;28;20223;-76
2023/01/29 00:33:22;;;;;;;112.90;108.22;;;7.40;96.30;;;;;;5009513;28;20032;-76
2023/01/29 00:35:48;;;;;;;113.38;108.68;;;7.40;96.30;;;;;;5026729;28;20032;-76
2023/01/29 00:38:13;;;;;;;113.18;108.53;;;7.40;96.30;;;;;;4995503;28;20040;-76
2023/01/29 00:46:09;;;;;;;109.65;105.15;;;7.40;96.30;;;;;;5031378;28;20036;-76
2023/01/29 00:48:35;;;;;;;117.78;112.97;;;7.40;96.30;;;;;;5031822;28;20025;-77
2023/01/29 00:51:01;;;;;;;114.75;110.10;;;7.40;96.30;;;;;;5030380;28;20033;-76
2023/01/29 00:53:28;;;;;;;115.20;110.53;;;7.40;96.40;;;;;;5030149;28;20025;-76
2023/01/29 00:55:53;;;;;;;;;;;7.40;96.30;;;;;;5030347;28;20061;-76
2023/01/29 00:58:21;;;;;;;118.00;113.20;;;7.40;96.30;;;;;;5030767;28;19913;-76
2023/01/29 01:00:50;;;;;;;113.30;108.70;;;7.40;96.30;;;;;;5030025;28;20026;-77
2023/01/29 01:03:16;;;;;;;112.82;108.22;;;7.40;96.20;;;;;;5013535;28;20022;-76
2023/01/29 01:05:42;;;;;;;114.13;109.47;;;7.40;96.30;;;;;;5031410;28;20440;-76
2023/01/29 01:11:05;;;;;;;112.07;107.50;;;7.30;96.30;;;;;;5031750;28;20056;-76
2023/01/29 01:13:32;;;;;;;114.50;109.80;;;7.30;96.30;;;;;;5030090;28;20021;-76
2023/01/29 01:15:58;;;;;;;116.45;111.75;;;7.30;96.30;;;;;;5029992;28;20107;-76
2023/01/29 01:18:24;;;;;;;117.70;113.00;;;7.30;96.30;;;;;;5013607;28;20517;-76
2023/01/29 01:20:57;;;;;;;116.40;111.70;;;7.30;96.30;;;;;;5030137;28;20053;-76
2023/01/29 01:23:23;;;;;;;117.00;112.30;;;7.20;96.30;;;;;;5014584;28;20162;-76
2023/01/29 01:25:49;;;;;;;122.60;117.70;;;7.20;96.30;;;;;;5013305;28;20034;-76
2023/01/29 01:28:14;;;;;;;118.80;114.05;;;7.20;96.30;;;;;;5029733;28;20092;-76
2023/01/29 01:30:41;;;;;;;119.85;115.00;;;7.20;96.30;;;;;;5029661;28;20671;-76
2023/01/29 01:33:06;;;;;;;122.10;117.20;;;7.20;96.30;;;;;;5013120;28;20030;-76
2023/01/29 01:35:32;;;;;;;122.53;117.63;;;7.20;96.30;;;;;;4997107;28;20040;-76
2023/01/29 01:37:58;;;;;;;125.82;120.82;;;7.20;96.30;;;;;;5029568;28;20068;-76
2023/01/29 01:40:25;;;;;;;127.63;122.53;;;7.10;96.30;;;;;;5029755;28;20033;-76
2023/01/29 01:42:53;;;;;;;125.47;120.47;;;7.10;96.30;;;;;;5029582;28;20057;-76
2023/01/29 01:45:24;;;;;;;128.50;123.35;;;7.10;96.30;;;;;;5030883;28;20080;-77
2023/01/29 01:48:21;;;;;;;125.47;120.47;;;7.10;96.30;;;;;;5029611;28;20029;-76
2023/01/29 01:50:57;;;;;;;126.75;121.65;;;7.00;96.30;;;;;;5031010;28;20037;-76
2023/01/29 01:53:29;;;;;;;127.80;122.68;;;7.00;96.30;;;;;;5030884;28;20564;-77
2023/01/29 01:56:00;;;;;;;126.93;121.85;;;7.10;96.40;;;;;;5030627;28;20064;-76
2023/01/29 01:58:57;;;;;;;127.45;122.32;;;7.10;96.40;;;;;;5030232;28;20026;-77
2023/01/29 02:01:26;;;;;;;123.88;118.88;;;7.10;96.40;;;;;;5030648;28;20029;-76
2023/01/29 02:09:57;;;;;;;123.05;118.15;;;7.10;96.30;;;;;;5029595;28;20108;-76
2023/01/29 02:12:23;;;;;;;119.35;114.55;;;7.10;96.30;;;;;;5028652;28;20033;-77
2023/01/29 02:14:50;;;;;;;124.10;119.10;;;7.10;96.30;;;;;;5028958;28;20504;-76
2023/01/29 02:17:18;;;;;;;123.00;118.10;;;7.10;96.30;;;;;;5028842;28;20190;-76
2023/01/29 02:19:56;;;;;;;123.82;118.85;;;7.20;96.40;;;;;;5030166;28;20029;-77
2023/01/29 02:22:54;;;;;;;123.78;118.78;;;7.20;96.40;;;;;;5029055;28;20027;-76
2023/01/29 02:25:48;;;;;;;119.50;114.70;;;7.20;96.40;;;;;;5028732;28;20025;-76
2023/01/29 02:28:26;;;;;;;124.10;119.13;;;7.20;96.40;;;;;;5028707;28;20474;-76
2023/01/29 02:31:03;;;;;;;129.82;124.63;;;7.20;96.40;;;;;;5030165;28;20079;-77
2023/01/29 02:34:05;;;;;;;127.07;122.00;;;7.20;96.40;;;;;;5029970;28;20367;-77
2023/01/29 02:36:36;;;;;;;129.05;123.85;;;7.20;96.30;;;;;;5028441;28;20079;-76
2023/01/29 02:39:16;;;;;;;125.40;120.40;;;7.10;96.30;;;;;;5028636;28;20394;-77
2023/01/29 02:41:51;;;;;;;127.90;122.80;;;7.10;96.30;;;;;;5029675;28;20025;-77
2023/01/29 02:44:33;;;;;;;127.47;122.38;;;7.10;96.30;;;;;;5029606;28;20029;-77
2023/01/29 02:47:22;;;;;;;128.20;123.10;;;7.10;96.30;;;;;;5028379;28;20115;-76
2023/01/29 02:50:14;;;;;;;126.75;121.65;;;7.00;96.30;;;;;;5029714;28;20101;-76
2023/01/29 02:52:49;;;;;;;128.55;123.40;;;7.00;96.30;;;;;;5029583;28;20056;-76
2023/01/29 02:55:21;;;;;;;124.22;119.25;;;7.00;96.30;;;;;;5028394;28;20090;-76
2023/01/29 02:57:49;;;;;;;126.90;121.80;;;6.90;96.30;;;;;;5029450;28;20395;-76
2023/01/29 03:00:19;;;;;;;127.00;121.90;;;6.90;96.30;;;;;;5027604;28;20017;-77
2023/01/29 03:03:05;;;;;;;124.55;119.55;;;6.90;96.30;;;;;;5029259;28;20017;-76
2023/01/29 03:05:36;;;;;;;127.85;122.75;;;6.90;96.30;;;;;;5028089;28;20029;-76
2023/01/29 03:08:09;;;;;;;122.70;117.80;;;6.90;96.30;;;;;;5029535;28;20116;-76
2023/01/29 03:10:41;;;;;;;122.10;117.20;;;6.90;96.40;;;;;;5029525;28;20025;-76
2023/01/29 03:13:31;;;;;;;122.03;117.03;;;6.90;96.40;;;;;;5029651;28;20104;-77
2023/01/29 03:16:24;;;;;;;122.25;117.43;;;6.90;96.40;;;;;;5028179;28;20057;-76
2023/01/29 03:19:07;;;;;;;115.78;111.18;;;6.90;96.30;;;;;;5029066;28;20118;-77
2023/01/29 03:21:50;;;;;;;117.40;112.72;;;6.90;96.50;;;;;;5027972;28;20037;-76
2023/01/29 03:33:05;;;;;;;111.07;106.78;;;7.00;96.40;;;;;;5028984;28;20032;-77
2023/01/29 03:35:36;;;;;;;104.43;100.32;;;7.00;96.40;;;;;;5027527;28;20030;-77
2023/01/29 03:38:08;;;;;;;105.07;100.97;;;7.00;96.30;;;;;;5028817;28;20482;-77
2023/01/29 03:40:49;;;;;;;105.20;101.10;;;7.00;96.40;;;;;;5027545;28;20029;-76
2023/01/29 03:43:38;;;;;;;104.00;100.00;;;7.00;96.40;;;;;;5027483;28;20482;-76
2023/01/29 03:46:23;;;;;;;103.22;99.22;;;7.00;96.40;;;;;;5027396;28;20040;-76
2023/01/29 03:48:58;;;;;;;99.45;95.65;;;6.90;96.30;;;;;;5028673;28;20022;-76
2023/01/29 03:51:34;;;;;;;101.13;97.22;;;6.90;96.30;;;;;;5028530;28;20033;-76
2023/01/29 03:54:14;;;;;;;100.28;96.43;;;6.90;96.30;;;;;;5028721;28;20471;-77
2023/01/29 03:57:02;;;;;;;101.00;97.10;;;6.90;96.30;;;;;;5027169;28;20067;-76
2023/01/29 03:59:51;;;;;;;101.15;97.25;;;6.80;96.30;;;;;;5027167;28;20032;-78
2023/01/29 04:02:28;;;;;;;100.97;97.07;;;6.80;96.30;;;;;;5028164;28;20391;-76
2023/01/29 04:05:00;;;;;;;101.50;97.60;;;6.70;96.30;;;;;;5028434;28;20017;-75
2023/01/29 04:07:32;;;;;;;103.35;99.35;;;6.70;96.30;;;;;;5027173;28;20026;-76
2023/01/29 04:10:02;;;;;;;102.90;98.90;;;6.60;96.20;;;;;;5027029;28;20120;-76
2023/01/29 04:12:52;;;;;;;102.93;98.93;;;6.50;96.20;;;;;;5027869;28;20029;-76
2023/01/29 04:15:21;;;;;;;105.00;100.95;;;6.40;96.20;;;;;;5028542;28;20029;-76
2023/01/29 04:17:51;;;;;;;102.38;98.40;;;6.30;96.30;;;;;;5027019;28;20441;-77
2023/01/29 04:20:18;;;;;;;103.35;99.35;;;6.30;96.30;;;;;;5027027;28;20026;-76
2023/01/29 04:22:49;;;;;;;103.07;99.07;;;6.20;96.30;;;;;;5026911;28;20066;-76
2023/01/29 04:25:25;;;;;;;105.95;101.85;;;6.20;96.30;;;;;;5027203;28;20167;-76
2023/01/29 04:28:09;;;;;;;103.45;99.45;;;6.20;96.30;;;;;;5028187;28;20025;-77
2023/01/29 04:30:40;;;;;;;106.70;102.60;;;6.10;96.30;;;;;;5027015;28;20163;-76
2023/01/29 04:33:21;;;;;;;106.88;102.78;;;6.00;96.30;;;;;;5026824;28;20075;-76
2023/01/29 04:36:18;;;;;;;103.53;99.53;;;6.00;96.30;;;;;;5028134;28;20084;-77
2023/01/29 04:39:01;;;;;;;105.10;101.05;;;5.90;96.30;;;;;;5027110;28;20030;-78
2023/01/29 04:41:36;;;;;;;104.68;100.68;;;6.00;96.30;;;;;;5026857;28;20022;-77
2023/01/29 04:44:10;;;;;;;106.60;102.50;;;5.90;96.30;;;;;;5026562;28;20083;-77
2023/01/29 04:46:54;;;;;;;105.32;101.22;;;5.90;96.30;;;;;;5026716;28;20390;-77
2023/01/29 04:49:29;;;;;;;106.82;102.72;;;5.80;96.30;;;;;;5026631;28;20026;-77
2023/01/29 04:52:13;;;;;;;105.00;100.90;;;5.80;96.30;;;;;;5027546;28;20029;-78
2023/01/29 04:54:55;;;;;;;104.85;100.75;;;5.80;96.30;;;;;;5026872;28;20526;-78
2023/01/29 04:57:26;;;;;;;110.68;106.38;;;5.80;96.30;;;;;;5026280;28;20060;-77
2023/01/29 04:59:56;;;;;;;114.25;109.85;;;5.70;96.30;;;;;;5027536;28;20021;-78
2023/01/29 05:02:23;;;;;;;108.35;104.20;;;5.70;96.30;;;;;;5027910;28;20462;-77
2023/01/29 05:04:51;;;;;;;104.47;100.47;;;5.70;96.30;;;;;;5027758;28;20045;-77
2023/01/29 05:07:18;;;;;;;106.40;102.30;;;5.70;96.60;;;;;;5027906;28;20112;-77
2023/01/29 05:09:45;;;;;;;102.28;98.38;;;5.70;96.40;;;;;;5026712;28;20389;-77
2023/01/29 05:12:14;;;;;;;99.70;95.88;;;5.80;96.40;;;;;;5026591;28;20032;-78
2023/01/29 05:14:43;;;;;;;100.07;96.20;;;5.80;96.50;;;;;;5027851;28;20109;-78
2023/01/29 05:17:17;;;;;;;97.15;93.45;;;5.80;96.60;;;;;;5026504;28;20025;-77
2023/01/29 05:19:44;;;;;;;101.07;97.18;;;5.90;96.50;;;;;;5027570;28;20026;-78
2023/01/29 05:22:14;;;;;;;101.13;97.22;;;6.00;96.50;;;;;;5010378;28;20048;-78
2023/01/29 05:24:39;;;;;;;96.18;92.47;;;6.00;96.40;;;;;;5030027;28;20028;-78
2023/01/29 05:29:50;;;;;;;97.78;94.00;;;6.10;96.40;;;;;;5031457;28;20083;-78
2023/01/29 05:32:16;;;;;;;99.72;95.93;;;6.20;96.40;;;;;;4997149;28;20448;-78
2023/01/29 05:34:41;;;;;;;97.93;94.13;;;6.20;96.40;;;;;;4997313;28;20050;-78
2023/01/29 05:37:09;;;;;;;97.85;94.05;;;6.30;96.40;;;;;;5031047;28;20147;-78
2023/01/29 05:39:35;;;;;;;100.53;96.63;;;6.30;96.40;;;;;;5031039;28;20390;-78
2023/01/29 05:42:01;;;;;;;100.72;96.88;;;6.30;96.40;;;;;;5031074;28;20022;-78
2023/01/29 05:44:26;;;;;;;100.00;96.18;;;6.40;96.50;;;;;;5029691;28;20026;-78
2023/01/29 05:46:52;;;;;;;96.60;92.90;;;6.50;96.50;;;;;;5029582;28;20025;-80
2023/01/29 05:49:19;;;;;;;99.15;95.35;;;6.50;96.50;;;;;;5029177;28;20405;-80
2023/01/29 05:51:45;;;;;;;101.25;97.35;;;6.50;96.40;;;;;;5012800;28;20033;-80
2023/01/29 05:54:12;;;;;;;100.78;96.88;;;6.60;96.40;;;;;;5012733;28;20037;-80
2023/01/29 05:56:38;;;;;;;103.68;99.68;;;6.60;96.40;;;;;;5012423;28;20149;-80
2023/01/29 05:59:04;;;;;;;;;;;6.60;96.40;;;;;;5029580;28;20030;-80
2023/01/29 06:01:30;;;;;;;104.10;100.10;;;6.60;96.40;;;;;;5029281;28;20199;-80
2023/01/29 06:03:55;;;;;;;104.88;100.80;;;6.60;96.40;;;;;;5012542;28;20358;-80
2023/01/29 06:06:21;;;;;;;103.53;99.53;;;6.60;96.40;;;;;;5012506;28;20434;-79
2023/01/29 06:08:47;;;;;;;106.57;102.47;;;6.60;96.40;;;;;;4996420;28;20478;-80
2023/01/29 06:11:15;;;;;;;103.50;99.50;;;6.60;96.40;;;;;;5012134;28;20034;-80
2023/01/29 06:13:41;;;;;;;102.82;98.82;;;6.60;96.40;;;;;;5028785;28;20475;-81
2023/01/29 06:16:08;;;;;;;104.85;100.80;;;6.60;96.40;;;;;;5028639;28;20117;-80
2023/01/29 06:18:35;;;;;;;102.18;98.18;;;6.60;96.40;;;;;;5030027;28;20496;-80
2023/01/29 06:21:02;;;;;;;103.68;99.60;;;6.60;96.40;;;;;;5029984;28;20116;-80
2023/01/29 06:23:28;;;;;;;105.00;100.90;;;6.60;96.40;;;;;;5028500;28;20432;-80
2023/01/29 06:26:02;;;;;;;109.10;104.90;;;6.60;96.40;;;;;;5017258;28;20033;-80
2023/01/29 06:28:29;;;;;;;105.25;101.15;;;6.60;96.40;;;;;;5031541;28;20156;-80
2023/01/29 06:30:59;;;;;;;107.47;103.28;;;6.60;96.40;;;;;;5028894;28;20025;-80
2023/01/29 06:33:25;;;;;;;111.45;107.15;;;6.70;96.50;;;;;;5029737;28;20033;-80
2023/01/29 06:36:02;;;;;;;106.63;102.53;;;6.70;96.50;;;;;;5011128;28;20057;-80
2023/01/29 06:38:28;;;;;;;106.93;102.75;;;6.70;96.50;;;;;;5029595;28;20032;-80
2023/01/29 06:40:54;;;;;;;108.60;104.40;;;6.70;96.50;;;;;;5028496;28;20095;-80
2023/01/29 06:43:22;;;;;;;113.45;109.05;;;6.70;96.50;;;;;;5029512;28;20501;-80
2023/01/29 06:45:55;;;;;;;107.85;103.65;;;6.70;96.50;;;;;;5028341;28;20437;-80
2023/01/29 06:48:22;;;;;;;111.03;106.72;;;6.80;96.50;;;;;;5029460;28;20052;-80
2023/01/29 06:50:48;;;;;;;107.57;103.38;;;6.80;96.50;;;;;;5028115;28;20025;-80
2023/01/29 06:53:14;;;;;;;109.53;105.25;;;6.80;96.50;;;;;;5011451;28;20036;-80
2023/01/29 06:55:41;;;;;;;110.57;106.22;;;6.90;96.50;;;;;;4995154;28;20037;-80
2023/01/29 06:58:07;;;;;;;;;;;6.90;96.40;;;;;;5028303;28;20022;-80
2023/01/29 07:00:33;;;;;;;112.88;108.47;;;6.90;96.40;;;;;;5027975;28;19909;-80
2023/01/29 07:02:58;;;;;;;111.82;107.43;;;6.90;96.40;;;;;;5011417;28;20029;-80
2023/01/29 07:05:24;;;;;;;107.88;103.68;;;6.90;96.40;;;;;;5011424;28;20132;-80
2023/01/29 07:07:50;;;;;;;110.95;106.55;;;6.90;96.60;;;;;;5027906;28;20029;-80
2023/01/29 07:10:16;;;;;;;108.47;104.22;;;6.90;96.40;;;;;;4994736;28;20091;-80
2023/01/29 07:12:41;;;;;;;110.53;106.22;;;6.90;96.40;;;;;;5027462;28;20075;-80
2023/01/29 07:15:08;;;;;;;109.30;105.00;;;6.90;96.40;;;;;;4994943;28;20029;-80
2023/01/29 07:17:33;;;;;;;113.35;108.85;;;6.90;96.40;;;;;;4994751;28;20040;-80
2023/01/29 07:19:59;;;;;;;110.53;106.13;;;6.90;96.40;;;;;;4994710;28;20043;-80
2023/01/29 07:22:25;;;;;;;107.60;103.32;;;6.90;96.50;;;;;;4994805;28;20060;-80
2023/01/29 07:24:50;;;;;;;115.60;111.00;;;6.90;96.40;;;;;;5010934;28;20037;-81
2023/01/29 07:27:16;;;;;;;113.07;108.57;;;6.90;96.40;;;;;;5011206;28;20348;-80
2023/01/29 07:29:42;;;;;;;115.10;110.50;;;6.90;96.40;;;;;;5011071;28;20042;-80
2023/01/29 07:32:07;;;;;;;114.70;110.15;;;6.90;96.40;;;;;;5028876;28;20508;-80
2023/01/29 07:34:33;;;;;;;125.80;120.80;;;6.90;96.50;;;;;;5027554;28;20057;-80
2023/01/29 07:36:59;;;;;;;124.95;119.95;;;6.90;96.50;;;;;;5010863;28;20037;-80
2023/01/29 07:39:24;;;;;;;110.05;105.65;;;6.90;96.50;;;;;;5027139;28;20091;-80
2023/01/29 07:41:50;;;;;;;112.82;108.32;;;6.90;96.50;;;;;;5010599;28;20430;-80
2023/01/29 07:44:16;;;;;;;112.63;108.10;;;6.90;96.50;;;;;;5027090;28;20490;-80
2023/01/29 07:46:42;;;;;;;112.53;107.97;;;6.90;96.50;;;;;;5028161;28;20021;-80
2023/01/29 07:49:08;;;;;;;113.95;109.35;;;6.90;96.50;;;;;;5027093;28;20033;-80
2023/01/29 07:51:33;;;;;;;116.60;111.90;;;6.90;96.50;;;;;;5010559;28;20038;-80
2023/01/29 07:53:59;;;;;;;117.20;112.47;;;6.90;96.50;;;;;;5010493;28;20398;-80
2023/01/29 07:56:25;;;;;;;113.00;108.47;;;6.90;96.50;;;;;;5010822;28;20133;-80
2023/01/29 07:58:51;;;;;;;115.82;111.13;;;6.90;96.50;;;;;;5014203;28;20128;-80
2023/01/29 08:01:17;;;;;;;;;;;6.90;96.50;;;;;;4994837;28;20029;-80
2023/01/29 08:03:42;;;;;;;120.80;115.90;;;6.90;96.50;;;;;;5026811;28;20396;-80
2023/01/29 08:06:08;;;;;;;122.25;117.35;;;6.90;96.50;;;;;;5010534;28;20034;-80
2023/01/29 08:08:34;;;;;;;122.22;117.32;;;6.90;96.50;;;;;;5010483;28;20089;-80
2023/01/29 08:11:01;;;;;;;119.60;114.80;;;7.00;96.50;;;;;;5026767;28;20025;-80
2023/01/29 08:13:27;;;;;;;116.90;112.15;;;7.00;96.50;;;;;;5010335;28;20049;-80
2023/01/29 08:15:53;;;;;;;112.70;108.10;;;7.00;96.50;;;;;;5010256;28;20029;-80
2023/01/29 08:18:18;;;;;;;118.53;113.72;;;7.00;96.50;;;;;;5026615;28;20044;-80
2023/01/29 08:20:44;;;;;;;113.97;109.35;;;7.00;96.50;;;;;;4993910;28;20029;-80
2023/01/29 08:23:15;;;;;;;116.32;111.63;;;7.00;96.50;;;;;;5028095;28;20041;-80
2023/01/29 08:25:41;;;;;;;112.72;108.13;;;7.00;96.50;;;;;;5027701;28;20013;-80
2023/01/29 08:28:06;;;;;;;109.85;105.35;;;7.00;96.50;;;;;;5009991;28;20036;-80
2023/01/29 08:30:34;;;;;;;111.20;106.63;;;7.10;96.60;;;;;;5029262;28;20040;-80
2023/01/29 08:33:00;;;;;;;111.03;106.43;;;7.00;96.60;;;;;;5011331;28;20427;-80
2023/01/29 08:35:25;;;;;;;;;;;7.10;96.60;;;;;;5026449;28;20428;-80
2023/01/29 08:37:57;;;;;;;114.78;110.07;;;7.10;96.60;;;;;;5026533;28;19920;-80
2023/01/29 08:40:24;;;;;;;112.18;107.60;;;7.10;96.50;;;;;;5027574;28;20034;-81
2023/01/29 08:42:50;;;;;;;113.28;108.68;;;7.20;96.60;;;;;;5026249;28;20021;-80
2023/01/29 08:45:16;;;;;;;112.70;108.10;;;7.20;96.60;;;;;;5026445;28;20104;-80
2023/01/29 08:47:46;;;;;;;114.38;109.78;;;7.20;96.60;;;;;;5027616;28;20112;-81
2023/01/29 08:50:12;;;;;;;117.00;112.30;;;7.20;96.60;;;;;;5026385;28;20030;-80
2023/01/29 08:52:38;;;;;;;114.32;109.68;;;7.20;96.60;;;;;;5025994;28;20087;-81
2023/01/29 08:55:04;;;;;;;112.25;107.68;;;7.20;96.60;;;;;;5026236;28;20045;-80
2023/01/29 08:57:30;;;;;;;117.10;112.40;;;7.30;96.70;;;;;;4993462;28;20041;-80
2023/01/29 08:59:55;;;;;;;116.47;111.78;;;7.30;96.60;;;;;;5012821;28;20040;-80
2023/01/29 09:02:21;;;;;;;113.78;109.18;;;7.30;96.60;;;;;;5013585;28;20026;-80
2023/01/29 09:04:47;;;;;;;117.07;112.38;;;7.30;96.60;;;;;;5029891;28;20442;-80
2023/01/29 09:07:12;;;;;;;118.22;113.47;;;7.40;96.60;;;;;;5030106;28;20026;-80
2023/01/29 09:09:38;;;;;;;118.80;114.00;;;7.40;96.60;;;;;;5013543;28;20103;-80
2023/01/29 09:12:04;;;;;;;122.15;117.25;;;7.40;96.60;;;;;;4997167;28;20124;-80
2023/01/29 09:14:30;;;;;;;121.43;116.53;;;7.50;96.60;;;;;;5013267;28;20517;-80
2023/01/29 09:16:56;;;;;;;118.95;114.15;;;7.50;96.60;;;;;;5013397;28;20133;-81
2023/01/29 09:19:21;;;;;;;123.15;118.15;;;7.50;96.60;;;;;;5013491;28;20037;-81
2023/01/29 09:21:48;;;;;;;123.95;118.95;;;7.50;96.60;;;;;;4996730;28;20025;-81
2023/01/29 09:24:14;;;;;;;124.63;119.57;;;7.50;96.60;;;;;;5030854;28;20064;-80
2023/01/29 09:26:40;;;;;;;123.63;118.63;;;7.50;96.60;;;;;;5013124;28;20057;-80
2023/01/29 09:29:05;;;;;;;121.68;116.72;;;7.60;96.60;;;;;;5017199;28;20038;-80
2023/01/29 09:31:31;;;;;;;123.40;118.43;;;7.60;96.60;;;;;;5017368;28;20046;-80
2023/01/29 09:33:57;;;;;;;122.10;117.20;;;7.60;96.60;;;;;;5012768;28;20406;-80
2023/01/29 09:36:23;;;;;;;121.50;116.60;;;7.60;96.60;;;;;;4996735;28;20133;-80
2023/01/29 09:38:48;;;;;;;115.97;111.28;;;7.70;96.60;;;;;;5013321;28;20398;-81
2023/01/29 09:41:40;;;;;;;114.47;109.90;;;7.70;96.60;;;;;;5030811;28;20049;-80
2023/01/29 09:44:31;;;;;;;114.40;109.78;;;7.70;96.60;;;;;;5029453;28;20325;-80
2023/01/29 09:47:03;;;;;;;111.00;106.53;;;7.70;96.60;;;;;;5024567;28;20033;-80
2023/01/29 09:49:34;;;;;;;108.90;104.50;;;7.80;96.60;;;;;;5029532;28;20025;-80
2023/01/29 09:52:17;;;;;;;110.93;106.45;;;7.80;96.70;;;;;;5029484;28;20079;-80
2023/01/29 09:55:17;;;;;;;111.00;106.57;;;7.80;96.70;;;;;;5030328;28;20121;-80
2023/01/29 09:57:48;;;;;;;111.13;106.72;;;7.80;96.70;;;;;;5029170;28;20064;-79
2023/01/29 10:00:32;;;;;;;113.75;109.18;;;7.80;96.60;;;;;;5030052;28;20409;-80
2023/01/29 10:03:17;;;;;;;113.70;109.20;;;7.90;96.70;;;;;;5030421;28;20490;-80
2023/01/29 10:06:00;;;;;;;115.68;111.07;;;7.90;96.70;;;;;;5030170;28;20022;-79
2023/01/29 10:09:04;;;;;;;121.32;116.43;;;7.90;96.70;;;;;;5029097;28;20030;-79
2023/01/29 10:11:41;;;;;;;127.55;122.45;;;8.00;96.70;;;;;;5009868;28;20085;-80
2023/01/29 10:14:36;;;;;;;122.00;117.00;;;8.00;96.60;;;;;;5029980;28;20037;-80
2023/01/29 10:17:39;;;;;;;122.60;117.60;;;8.00;96.70;;;;;;5027953;28;20508;-80
2023/01/29 10:20:32;;;;;;;127.13;122.03;;;8.00;96.70;;;;;;5028702;28;20029;-79
2023/01/29 10:23:04;;;;;;;127.82;122.68;;;8.10;96.70;;;;;;5029945;28;20029;-80
2023/01/29 10:25:34;;;;;;;125.07;120.00;;;8.10;96.60;;;;;;5029832;28;20017;-80
2023/01/29 10:28:00;;;;;;;129.30;124.00;;;8.10;96.60;;;;;;5028743;28;20033;-80
2023/01/29 10:30:29;;;;;;;127.68;122.47;;;8.20;96.70;;;;;;5029640;28;20765;-80
2023/01/29 10:33:01;;;;;;;128.25;123.05;;;8.20;96.70;;;;;;5028323;28;20108;-79
2023/01/29 10:35:33;;;;;;;129.48;124.28;;;8.20;96.70;;;;;;5029232;28;20442;-80
2023/01/29 10:38:30;;;;;;;131.30;126.00;;;8.20;96.70;;;;;;5029541;28;20022;-80
2023/01/29 10:41:01;;;;;;;129.85;124.55;;;8.30;96.70;;;;;;5026482;28;20041;-80
2023/01/29 10:43:30;;;;;;;128.07;122.80;;;8.30;96.60;;;;;;5027863;28;20026;-80
2023/01/29 10:46:18;;;;;;;125.57;120.45;;;8.30;96.70;;;;;;5028687;28;20573;-80
2023/01/29 10:49:09;;;;;;;129.35;124.05;;;8.40;96.70;;;;;;5027261;28;20048;-80
2023/01/29 10:52:08;;;;;;;123.15;118.15;;;8.40;96.70;;;;;;5027674;28;20132;-79
2023/01/29 10:54:53;;;;;;;120.72;115.72;;;8.40;96.70;;;;;;5027655;28;20108;-80
2023/01/29 10:57:55;;;;;;;118.20;113.30;;;8.40;96.70;;;;;;5027951;28;20575;-78
2023/01/29 11:00:36;;;;;;;118.72;113.82;;;8.40;96.70;;;;;;5027917;28;20493;-78
2023/01/29 11:03:12;;;;;;;117.68;112.78;;;8.50;96.70;;;;;;5034216;28;20017;-80
2023/01/29 11:05:50;;;;;;;114.37;109.67;;;8.50;96.70;;;;;;5031605;28;20060;-79
2023/01/29 11:08:20;;;;;;;115.50;110.72;;;8.50;96.70;;;;;;5028163;28;20277;-80
2023/01/29 11:11:08;;;;;;;114.10;109.40;;;8.50;96.70;;;;;;5027361;28;20029;-79
2023/01/29 11:14:05;;;;;;;112.13;107.53;;;8.60;96.80;;;;;;5027285;28;20033;-79
2023/01/29 11:16:43;;;;;;;112.97;108.30;;;8.60;96.80;;;;;;5027508;28;20053;-80
2023/01/29 11:19:09;;;;;;;114.95;110.25;;;8.60;96.70;;;;;;5029220;28;20026;-80
2023/01/29 11:21:52;;;;;;;116.82;112.03;;;8.60;96.70;;;;;;5027236;28;20068;-79
2023/01/29 11:24:18;;;;;;;114.30;109.65;;;8.60;96.80;;;;;;5027079;28;20029;-80
2023/01/29 11:26:47;;;;;;;116.03;111.32;;;8.70;96.80;;;;;;5027679;28;20397;-79
2023/01/29 11:29:32;;;;;;;114.00;109.40;;;8.70;96.80;;;;;;5026728;28;20041;-80
2023/01/29 11:32:00;;;;;;;113.10;108.50;;;8.70;96.80;;;;;;5027373;28;20382;-79
2023/01/29 11:34:31;;;;;;;110.60;106.10;;;8.70;97.00;;;;;;5026935;28;20033;-79
2023/01/29 11:37:00;;;;;;;108.72;104.32;;;8.80;96.90;;;;;;5011100;28;20029;-80
2023/01/29 11:39:27;;;;;;;106.60;102.30;;;8.80;96.90;;;;;;5026567;28;20555;-79
2023/01/29 11:42:03;;;;;;;108.00;103.70;;;8.90;96.90;;;;;;5026539;28;20125;-80
2023/01/29 11:44:38;;;;;;;113.70;109.20;;;9.00;96.90;;;;;;5026783;28;20028;-79
2023/01/29 11:47:20;;;;;;;111.80;107.30;;;9.00;96.80;;;;;;5026758;28;20581;-79
2023/01/29 11:49:54;;;;;;;110.75;106.35;;;9.10;96.90;;;;;;5029067;28;20080;-80
2023/01/29 11:52:26;;;;;;;106.07;101.85;;;9.10;96.90;;;;;;5026749;28;20025;-81
2023/01/29 11:54:56;;;;;;;105.78;101.55;;;9.20;96.90;;;;;;5027256;28;20508;-77
2023/01/29 11:57:35;;;;;;;106.85;102.60;;;9.20;96.90;;;;;;5025917;28;20052;-80
2023/01/29 12:00:05;;;;;;;106.53;102.30;;;9.30;96.90;;;;;;5026321;28;20052;-81
2023/01/29 12:02:35;;;;;;;112.13;107.68;;;9.40;96.90;;;;;;5026588;28;20053;-81
2023/01/29 12:05:14;;;;;;;106.38;102.18;;;9.40;96.90;;;;;;5026068;28;20087;-80
2023/01/29 12:07:42;;;;;;;106.07;101.88;;;9.40;96.90;;;;;;5026164;28;20052;-81
2023/01/29 12:10:35;;;;;;;106.63;102.43;;;9.50;96.90;;;;;;5026160;28;20381;-80
2023/01/29 12:13:04;;;;;;;108.78;104.47;;;9.50;96.90;;;;;;5027424;28;20104;-80
2023/01/29 12:15:30;;;;;;;109.30;104.95;;;9.60;96.90;;;;;;5026461;28;20318;-81
2023/01/29 12:18:07;;;;;;;109.22;104.93;;;9.60;96.90;;;;;;5027938;28;20179;-80
2023/01/29 12:20:57;;;;;;;105.45;101.30;;;9.70;97.00;;;;;;5027084;28;20036;-80
2023/01/29 12:23:29;;;;;;;107.15;102.88;;;9.80;97.00;;;;;;5024274;28;20172;-80
2023/01/29 12:25:59;;;;;;;102.65;98.55;;;9.80;97.00;;;;;;5027509;28;20040;-80
2023/01/29 12:28:55;;;;;;;105.78;101.57;;;9.90;97.10;;;;;;5025934;28;20485;-80
2023/01/29 12:31:25;;;;;;;102.78;98.68;;;9.90;97.00;;;;;;5026673;28;20033;-80
2023/01/29 12:34:09;;;;;;;100.60;96.60;;;10.00;97.00;;;;;;5025456;28;20057;-81
2023/01/29 12:36:45;;;;;;;99.22;95.22;;;10.10;97.00;;;;;;5026284;28;20100;-80
2023/01/29 12:39:16;;;;;;;102.10;98.00;;;10.10;97.00;;;;;;5028805;28;20028;-80
2023/01/29 12:41:44;;;;;;;100.15;96.15;;;10.20;97.00;;;;;;5025972;28;20183;-80
2023/01/29 12:44:29;;;;;;;103.63;99.53;;;10.30;97.10;;;;;;5027412;28;20021;-81
2023/01/29 12:47:01;;;;;;;102.00;98.00;;;10.30;97.00;;;;;;5027279;28;20036;-81
2023/01/29 12:49:34;;;;;;;96.90;93.07;;;10.40;97.10;;;;;;5025653;28;20033;-80
2023/01/29 12:52:05;;;;;;;97.05;93.20;;;10.50;97.20;;;;;;5025907;28;20107;-80
2023/01/29 12:54:39;;;;;;;96.90;93.10;;;10.70;97.20;;;;;;5025447;28;20033;-81
2023/01/29 12:57:18;;;;;;;97.22;93.43;;;10.80;97.10;;;;;;5026810;28;20393;-79
2023/01/29 12:59:49;;;;;;;99.75;95.75;;;10.90;97.00;;;;;;5025475;28;20036;-80
2023/01/29 13:02:30;;;;;;;98.75;94.85;;;10.90;97.00;;;;;;5027040;28;20029;-80
2023/01/29 13:05:15;;;;;;;98.00;94.13;;;11.00;97.10;;;;;;5025349;28;20438;-80
2023/01/29 13:07:46;;;;;;;99.43;95.53;;;11.00;97.10;;;;;;5025922;28;20445;-81
2023/01/29 13:10:19;;;;;;;96.22;92.43;;;11.10;97.10;;;;;;5026444;28;20039;-78
2023/01/29 13:12:57;;;;;;;97.10;93.20;;;11.20;97.20;;;;;;5024784;28;20502;-78